Time;durP1;ratioP1;P1;durP2;ratioP2;P2;SDS_P1;SDS_P2;PMS_P1;PMS_P2;Temp;Humidity;BMP_temperature;BMP_pressure;BME280_temperature;BME280_humidity;BME280_pressure;Samples;Min_cycle;Max_cycle;Signal;HPM_P1;HPM_P2
2022/07/27 00:01:01;;;;;;;20.52;10.23;;;;;;;23.34;61.59;98798.09;5068818;28;20048;-68
2022/07/27 00:03:28;;;;;;;182.20;73.57;;;;;;;23.31;61.72;98794.13;5068366;28;20048;-67
2022/07/27 00:05:55;;;;;;;23.30;11.35;;;;;;;23.29;61.84;98796.56;5068993;28;20392;-67
2022/07/27 00:08:22;;;;;;;18.00;10.48;;;;;;;23.27;62.05;98793.38;5068550;28;20522;-68
2022/07/27 00:10:50;;;;;;;17.17;9.85;;;;;;;23.22;62.00;98793.84;5068475;28;20098;-65
2022/07/27 00:13:18;;;;;;;15.43;10.02;;;;;;;23.18;62.21;98789.50;5068296;28;20453;-65
2022/07/27 00:15:45;;;;;;;18.83;9.32;;;;;;;23.19;62.48;98788.25;5056163;28;20045;-67
2022/07/27 00:18:11;;;;;;;12.50;9.57;;;;;;;23.18;62.40;98798.00;5054947;28;20049;-66
2022/07/27 00:20:41;;;;;;;15.70;10.32;;;;;;;23.14;62.46;98798.06;5055305;28;20131;-66
2022/07/27 00:23:11;;;;;;;15.40;10.32;;;;;;;23.15;62.52;98796.03;5054699;28;20523;-70
2022/07/27 00:25:37;;;;;;;18.27;10.57;;;;;;;23.12;62.67;98799.75;5055138;28;20056;-65
2022/07/27 00:28:05;;;;;;;16.15;11.40;;;;;;;23.12;62.78;98800.53;5037545;28;20049;-66
2022/07/27 00:30:32;;;;;;;14.07;10.55;;;;;;;23.11;62.63;98793.25;5054645;28;20064;-66
2022/07/27 00:32:59;;;;;;;14.13;10.18;;;;;;;23.11;62.88;98800.94;5054913;28;20124;-65
2022/07/27 00:35:28;;;;;;;15.27;10.38;;;;;;;23.09;63.07;98794.91;5055185;28;20084;-66
2022/07/27 00:37:55;;;;;;;14.50;10.68;;;;;;;23.07;62.99;98798.16;5055384;28;20055;-67
2022/07/27 00:40:24;;;;;;;14.83;10.60;;;;;;;23.07;63.12;98788.88;5068197;28;20118;-67
2022/07/27 00:42:51;;;;;;;17.55;10.60;;;;;;;23.08;63.05;98798.97;5074483;28;20048;-67
2022/07/27 00:45:18;;;;;;;26.60;10.13;;;;;;;23.07;62.99;98798.16;5075070;28;20052;-67
2022/07/27 00:47:45;;;;;;;13.48;10.35;;;;;;;23.07;62.92;98798.16;5074466;28;20505;-65
2022/07/27 00:50:12;;;;;;;16.48;10.32;;;;;;;23.06;63.11;98807.94;5074490;28;20052;-65
2022/07/27 00:52:40;;;;;;;16.23;10.40;;;;;;;23.04;63.36;98801.88;5074512;28;20384;-68
2022/07/27 00:55:07;;;;;;;18.23;10.23;;;;;;;23.03;63.55;98808.81;5064113;28;20052;-68
2022/07/27 00:57:34;;;;;;;16.70;10.75;;;;;;;23.02;63.38;98807.22;5054718;28;20052;-68
2022/07/27 01:00:21;;;;;;;130.10;60.72;;;;;;;23.00;63.28;98815.34;5054753;28;20110;-67
2022/07/27 01:02:50;;;;;;;35.53;19.30;;;;;;;22.99;63.49;98812.94;5054245;28;20535;-66
2022/07/27 01:05:17;;;;;;;13.88;10.73;;;;;;;22.97;63.65;98810.53;5054498;28;20136;-68
2022/07/27 01:07:47;;;;;;;16.42;11.05;;;;;;;22.94;63.59;98814.22;5054216;28;20410;-67
2022/07/27 01:10:16;;;;;;;16.13;10.95;;;;;;;22.92;64.12;98819.53;5053967;28;20060;-67
2022/07/27 01:12:44;;;;;;;17.60;11.25;;;;;;;22.91;63.99;98811.44;5053811;28;20131;-68
2022/07/27 01:15:12;;;;;;;16.27;10.68;;;;;;;22.89;64.00;98814.72;5054364;28;20063;-68
2022/07/27 01:17:38;;;;;;;17.63;10.40;;;;;;;22.85;64.10;98810.34;5053910;28;20045;-68
2022/07/27 01:20:06;;;;;;;15.05;10.48;;;;;;;22.85;64.35;98819.66;5054135;28;20522;-68
2022/07/27 01:22:33;;;;;;;17.50;11.27;;;;;;;22.84;64.29;98817.25;5054089;28;20053;-64
2022/07/27 01:25:00;;;;;;;22.08;11.20;;;;;;;22.83;64.40;98822.13;5054169;28;20151;-65
2022/07/27 01:27:27;;;;;;;19.10;10.88;;;;;;;22.78;64.64;98811.28;5052767;28;20131;-64
2022/07/27 01:29:54;;;;;;;18.48;12.52;;;;;;;22.74;64.64;98821.88;5058961;28;20056;-66
2022/07/27 01:32:21;;;;;;;18.20;11.35;;;;;;;22.74;64.69;98824.72;5074034;28;20503;-67
2022/07/27 01:34:48;;;;;;;21.05;11.80;;;;;;;22.74;64.66;98819.03;5073883;28;20048;-67
2022/07/27 01:37:15;;;;;;;15.13;10.70;;;;;;;22.71;64.91;98814.22;5073741;28;20048;-67
2022/07/27 01:39:42;;;;;;;16.30;10.43;;;;;;;22.70;64.90;98821.16;5074041;28;20574;-67
2022/07/27 01:42:08;;;;;;;17.25;10.75;;;;;;;22.71;65.08;98819.91;5073953;28;20048;-67
2022/07/27 01:44:35;;;;;;;22.20;11.30;;;;;;;22.71;65.15;98813.44;5073273;28;20053;-67
2022/07/27 01:47:04;;;;;;;18.30;11.50;;;;;;;22.66;65.33;98816.75;5073240;28;20060;-67
2022/07/27 01:49:40;;;;;;;20.83;11.57;;;;;;;22.65;65.62;98821.63;5073760;28;20052;-66
2022/07/27 01:52:07;;;;;;;16.85;11.27;;;;;;;22.67;65.38;98819.16;5073346;28;20049;-66
2022/07/27 01:54:34;;;;;;;17.25;11.30;;;;;;;22.70;65.31;98826.81;5067170;28;20083;-67
2022/07/27 01:57:01;;;;;;;24.45;11.35;;;;;;;22.69;65.48;98825.22;5053467;28;20503;-67
2022/07/27 01:59:28;;;;;;;21.30;11.63;;;;;;;22.64;65.57;98831.38;5053370;28;20060;-65
2022/07/27 02:01:54;;;;;;;21.20;13.18;;;;;;;22.67;65.78;98827.69;5053178;28;20052;-66
2022/07/27 02:04:23;;;;;;;16.85;11.63;;;;;;;22.70;65.50;98823.16;5053657;28;20053;-66
2022/07/27 02:06:50;;;;;;;15.88;11.98;;;;;;;22.69;65.55;98828.06;5053235;28;20500;-66
2022/07/27 02:09:17;;;;;;;20.40;12.65;;;;;;;22.74;65.41;98827.53;5052865;28;20048;-66
2022/07/27 02:14:29;;;;;;;22.63;12.90;;;;;;;22.90;64.88;98826.88;5053071;28;20064;-67
2022/07/27 02:16:56;;;;;;;22.88;12.00;;;;;;;22.92;64.57;98830.09;5034943;28;20045;-67
2022/07/27 02:19:24;;;;;;;19.48;11.63;;;;;;;22.82;64.81;98831.88;5066439;28;20048;-67
2022/07/27 02:21:53;;;;;;;19.30;11.63;;;;;;;22.75;65.11;98823.50;5072762;28;20427;-65
2022/07/27 02:24:20;;;;;;;20.02;11.63;;;;;;;22.69;65.39;98821.56;5073094;28;20047;-66
2022/07/27 02:26:47;;;;;;;28.23;13.88;;;;;;;22.78;65.51;98831.16;5072765;28;20053;-66
2022/07/27 02:29:15;;;;;;;20.77;12.15;;;;;;;22.82;65.37;98831.06;5072597;28;20052;-65
2022/07/27 02:31:42;;;;;;;17.17;12.27;;;;;;;22.84;65.36;98826.59;5072732;28;20060;-66
2022/07/27 02:34:09;;;;;;;18.48;12.18;;;;;;;22.90;65.31;98827.69;5072476;28;20442;-66
2022/07/27 02:36:38;;;;;;;23.77;12.00;;;;;;;22.95;65.21;98830.00;5072785;28;20092;-67
2022/07/27 02:39:05;;;;;;;18.08;11.98;;;;;;;22.97;65.16;98833.22;5072165;28;20391;-67
2022/07/27 02:41:32;;;;;;;24.00;12.02;;;;;;;23.02;65.14;98832.75;5055059;28;20540;-66
2022/07/27 02:43:59;;;;;;;21.85;12.43;;;;;;;23.05;65.31;98831.88;5072378;28;20040;-66
2022/07/27 02:46:28;;;;;;;21.13;12.13;;;;;;;23.06;65.35;98836.31;5072566;28;20414;-66
2022/07/27 02:48:55;;;;;;;19.88;12.90;;;;;;;23.08;65.12;98833.03;5072618;28;20174;-67
2022/07/27 02:51:22;;;;;;;15.18;11.23;;;;;;;23.13;64.98;98838.22;5072599;28;20093;-66
2022/07/27 02:53:49;;;;;;;16.35;11.27;;;;;;;23.17;65.13;98839.75;5072209;28;20127;-66
2022/07/27 02:56:16;;;;;;;18.92;12.70;;;;;;;23.21;64.95;98840.47;5073140;28;20109;-67
2022/07/27 02:58:44;;;;;;;21.20;13.70;;;;;;;23.23;65.12;98842.88;5072189;28;20063;-66
2022/07/27 03:01:11;;;;;;;25.85;14.57;;;;;;;23.28;64.87;98843.25;5055442;28;20495;-65
2022/07/27 03:03:38;;;;;;;21.77;12.05;;;;;;;23.28;64.97;98836.75;5071834;28;20191;-66
2022/07/27 03:06:06;;;;;;;22.50;12.85;;;;;;;23.31;64.77;98842.38;5072880;28;20044;-66
2022/07/27 03:08:34;;;;;;;29.45;15.05;;;;;;;23.38;64.54;98851.97;5072157;28;20048;-67
2022/07/27 03:11:01;;;;;;;30.42;15.48;;;;;;;23.46;64.21;98842.06;5054377;28;20062;-66
2022/07/27 03:13:28;;;;;;;27.42;14.93;;;;;;;23.52;63.74;98837.50;5072099;28;20495;-66
2022/07/27 03:15:55;;;;;;;16.95;12.60;;;;;;;23.60;63.37;98836.13;5072278;28;20135;-67
2022/07/27 03:18:22;;;;;;;24.15;15.35;;;;;;;23.67;63.27;98841.63;5072527;28;20056;-67
2022/07/27 03:20:49;;;;;;;23.13;15.07;;;;;;;23.70;63.05;98833.06;5072552;28;20052;-66
2022/07/27 03:23:17;;;;;;;23.67;14.57;;;;;;;23.77;63.02;98834.97;5071761;28;20045;-67
2022/07/27 03:25:43;;;;;;;24.65;14.80;;;;;;;23.82;62.34;98828.75;5072356;28;20048;-65
2022/07/27 03:28:10;;;;;;;27.23;13.75;;;;;;;23.89;62.39;98831.44;5072068;28;20048;-64
2022/07/27 03:30:37;;;;;;;23.63;14.00;;;;;;;23.93;62.69;98823.66;5072429;28;20102;-64
2022/07/27 03:33:04;;;;;;;20.98;14.35;;;;;;;23.98;62.71;98831.69;5071881;28;20048;-68
2022/07/27 03:35:31;;;;;;;18.60;12.95;;;;;;;24.04;62.88;98832.78;5053901;28;20040;-71
2022/07/27 03:37:58;;;;;;;19.38;13.18;;;;;;;24.16;62.79;98829.25;5072039;28;20143;-71
2022/07/27 03:40:28;;;;;;;18.35;12.68;;;;;;;24.30;62.76;98834.59;5071803;28;20048;-70
2022/07/27 03:42:55;;;;;;;23.02;13.95;;;;;;;24.43;62.18;98832.69;5071988;28;20048;-71
2022/07/27 03:45:22;;;;;;;26.08;13.60;;;;;;;24.51;62.10;98843.44;5071927;28;20127;-71
2022/07/27 03:47:49;;;;;;;34.00;13.80;;;;;;;24.60;62.08;98837.16;5071929;28;20083;-71
2022/07/27 03:50:17;;;;;;;22.90;13.80;;;;;;;24.67;61.77;98839.84;5073900;28;20211;-71
2022/07/27 03:52:44;;;;;;;22.85;14.95;;;;;;;24.76;61.28;98840.00;5076126;28;20044;-71
2022/07/27 03:55:11;;;;;;;27.83;17.02;;;;;;;24.84;60.81;98841.44;5064185;28;20048;-71
2022/07/27 03:57:39;;;;;;;24.00;13.88;;;;;;;24.89;60.46;98847.38;5055387;28;20045;-71
2022/07/27 04:00:10;;;;;;;28.83;14.90;;;;;;;24.96;60.29;98850.03;5056042;28;20052;-71
2022/07/27 04:02:37;;;;;;;24.10;14.85;;;;;;;25.01;59.91;98854.41;5055457;28;20061;-72
2022/07/27 04:05:05;;;;;;;26.42;14.50;;;;;;;25.02;59.40;98851.09;5055597;28;20504;-72
2022/07/27 04:07:32;;;;;;;27.38;15.50;;;;;;;25.08;59.37;98857.09;5055531;28;20048;-72
2022/07/27 04:09:59;;;;;;;27.83;14.73;;;;;;;25.13;58.94;98854.47;5056478;28;20044;-72
2022/07/27 04:12:28;;;;;;;27.13;15.02;;;;;;;25.19;58.33;98857.59;5055463;28;20056;-70
2022/07/27 04:14:57;;;;;;;30.58;15.18;;;;;;;25.26;58.57;98860.25;5055440;28;20048;-71
2022/07/27 04:17:24;;;;;;;26.33;14.93;;;;;;;25.32;58.08;98851.97;5037759;28;20057;-72
2022/07/27 04:20:13;;;;;;;25.08;14.75;;;;;;;25.37;58.07;98857.94;5070227;28;20094;-72
2022/07/27 04:22:40;;;;;;;26.38;13.85;;;;;;;25.46;57.86;98851.63;5075117;28;20143;-71
2022/07/27 04:25:08;;;;;;;23.15;15.20;;;;;;;25.54;57.29;98856.66;5075236;28;20499;-71
2022/07/27 04:27:37;;;;;;;25.95;15.77;;;;;;;25.57;56.82;98861.44;5075212;28;20571;-71
2022/07/27 04:30:04;;;;;;;32.35;15.68;;;;;;;25.63;56.45;98865.34;5075003;28;20138;-72
2022/07/27 04:32:42;;;;;;;26.85;15.93;;;;;;;25.67;56.36;98860.38;5074983;28;20090;-68
2022/07/27 04:35:09;;;;;;;23.63;16.40;;;;;;;25.71;56.34;98861.06;5075443;28;20045;-68
2022/07/27 04:37:36;;;;;;;23.17;16.08;;;;;;;25.76;56.37;98868.25;5074778;28;20044;-68
2022/07/27 04:40:05;;;;;;;24.10;15.15;;;;;;;25.84;55.77;98870.44;5074807;28;20051;-68
2022/07/27 04:42:32;;;;;;;26.85;15.75;;;;;;;25.96;56.14;98869.69;5074996;28;20658;-67
2022/07/27 04:44:59;;;;;;;26.20;16.77;;;;;;;26.05;55.59;98869.84;5074817;28;20491;-68
2022/07/27 04:47:26;;;;;;;38.35;18.48;;;;;;;26.13;55.37;98873.28;5074863;28;20063;-69
2022/07/27 04:49:53;;;;;;;25.90;17.10;;;;;;;26.13;55.10;98865.53;5074946;28;20411;-69
2022/07/27 04:52:20;;;;;;;22.48;15.88;;;;;;;26.16;54.84;98870.34;5074684;28;20406;-69
2022/07/27 04:54:54;;;;;;;28.95;16.60;;;;;;;26.20;55.17;98868.16;5065599;28;20049;-69
2022/07/27 04:57:22;;;;;;;31.40;16.90;;;;;;;26.30;55.04;98866.25;5054722;28;20048;-66
2022/07/27 04:59:49;;;;;;;31.08;17.08;;;;;;;26.44;54.89;98869.44;5054620;28;20082;-67
2022/07/27 05:02:16;;;;;;;32.92;18.08;;;;;;;26.63;54.60;98864.81;5054122;28;20056;-71
2022/07/27 05:04:43;;;;;;;29.35;16.70;;;;;;;26.74;54.36;98866.06;5054765;28;20076;-72
2022/07/27 05:07:10;;;;;;;24.17;16.70;;;;;;;26.79;54.24;98859.78;5036877;28;20053;-71
2022/07/27 05:09:37;;;;;;;23.92;15.25;;;;;;;26.82;53.81;98860.91;5054502;28;20044;-71
2022/07/27 05:12:04;;;;;;;28.20;16.88;;;;;;;26.95;53.67;98863.75;5036726;28;20055;-70
2022/07/27 05:14:31;;;;;;;24.58;16.33;;;;;;;27.13;53.38;98863.97;5054430;28;20052;-72
2022/07/27 05:16:57;;;;;;;24.48;17.48;;;;;;;27.29;52.76;98866.72;5054272;28;20076;-71
2022/07/27 05:19:24;;;;;;;27.35;16.65;;;;;;;27.45;52.49;98869.41;5054351;28;20053;-71
2022/07/27 05:22:06;;;;;;;23.92;15.70;;;;;;;27.65;52.31;98858.47;5054152;28;20060;-72
2022/07/27 05:24:33;;;;;;;25.58;17.45;;;;;;;27.81;51.60;98869.69;5037118;28;20103;-71
2022/07/27 05:27:00;;;;;;;25.40;17.17;;;;;;;27.87;51.21;98874.41;5054093;28;20132;-71
2022/07/27 05:29:27;;;;;;;25.60;15.95;;;;;;;27.83;51.23;98867.97;5054724;28;20053;-71
2022/07/27 05:31:54;;;;;;;23.77;15.00;;;;;;;27.88;50.96;98863.75;5054009;28;20569;-73
2022/07/27 05:34:20;;;;;;;24.65;16.10;;;;;;;28.16;50.34;98869.19;5070067;28;20135;-73
2022/07/27 05:36:48;;;;;;;23.85;15.63;;;;;;;28.48;49.51;98859.41;5073894;28;20079;-71
2022/07/27 05:39:14;;;;;;;31.10;15.90;;;;;;;28.73;48.56;98859.19;5073744;28;20049;-71
2022/07/27 05:41:42;;;;;;;29.40;15.20;;;;;;;28.94;48.46;98866.09;5073924;28;20647;-72
2022/07/27 05:44:09;;;;;;;29.42;16.02;;;;;;;29.03;48.05;98864.06;5073280;28;20151;-72
2022/07/27 05:46:36;;;;;;;22.92;14.80;;;;;;;29.08;47.76;98857.75;5073550;28;20423;-72
2022/07/27 05:49:03;;;;;;;24.27;15.18;;;;;;;29.35;47.10;98868.44;5073671;28;20083;-72
2022/07/27 05:51:30;;;;;;;27.52;14.40;;;;;;;29.51;46.41;98848.88;5073417;28;20507;-71
2022/07/27 05:53:58;;;;;;;22.42;14.52;;;;;;;29.76;45.91;98865.81;5061332;28;20140;-72
2022/07/27 05:56:26;;;;;;;20.52;13.77;;;;;;;30.12;45.03;98860.03;5053538;28;20136;-72
2022/07/27 05:58:53;;;;;;;23.00;13.70;;;;;;;30.46;43.73;98858.09;5053355;28;20084;-72
2022/07/27 06:01:22;;;;;;;21.42;12.90;;;;;;;30.79;43.01;98856.06;5053756;28;20475;-70
2022/07/27 06:03:50;;;;;;;24.08;13.88;;;;;;;31.08;41.58;98862.00;5052908;28;20049;-71
2022/07/27 06:09:05;;;;;;;16.67;12.02;;;;;;;31.61;40.37;98866.59;5053394;28;20064;-71
2022/07/27 06:11:32;;;;;;;20.75;13.30;;;;;;;33.01;37.41;98860.09;5053510;28;20052;-71
2022/07/27 06:13:59;;;;;;;15.00;11.43;;;;;;;34.13;34.58;98861.09;5052747;28;20389;-71
2022/07/27 06:16:26;;;;;;;18.00;12.88;;;;;;;36.97;30.49;98857.94;5053003;28;20041;-68
2022/07/27 06:18:54;;;;;;;19.67;12.80;;;;;;;37.96;28.44;98848.97;5052645;28;20053;-68
2022/07/27 06:21:26;;;;;;;17.30;12.82;;;;;;;37.92;28.37;98855.06;5057800;28;20376;-68
2022/07/27 06:23:54;;;;;;;16.83;11.70;;;;;;;38.40;28.46;98861.13;5055950;28;20049;-66
2022/07/27 06:26:21;;;;;;;18.02;12.27;;;;;;;39.22;26.86;98858.91;5072523;28;20049;-67
2022/07/27 06:28:48;;;;;;;14.55;11.50;;;;;;;39.41;26.57;98853.97;5057084;28;20052;-68
2022/07/27 06:31:15;;;;;;;16.17;11.20;;;;;;;40.34;25.70;98862.09;5063849;28;20056;-66
2022/07/27 06:33:43;;;;;;;24.35;12.32;;;;;;;39.86;25.76;98865.91;5066850;28;20455;-66
2022/07/27 06:36:16;;;;;;;22.05;13.90;;;;;;;38.12;27.58;98859.72;5054377;28;20511;-67
2022/07/27 06:38:42;;;;;;;16.55;12.57;;;;;;;35.97;30.13;98863.56;5060197;28;20130;-66
2022/07/27 06:41:10;;;;;;;20.30;12.85;;;;;;;34.64;32.28;98867.63;5060244;28;20110;-67
2022/07/27 06:43:37;;;;;;;25.35;12.55;;;;;;;34.42;32.74;98852.19;5060231;28;20051;-67
2022/07/27 06:46:11;;;;;;;19.60;13.52;;;;;;;34.73;32.89;98876.16;5052585;28;20407;-67
2022/07/27 06:48:39;;;;;;;20.20;12.15;;;;;;;34.01;33.64;98874.59;5064562;28;20059;-67
2022/07/27 06:51:13;;;;;;;19.40;12.35;;;;;;;33.28;34.96;98862.59;5038371;28;20449;-67
2022/07/27 06:53:41;;;;;;;25.33;12.85;;;;;;;32.89;36.04;98872.75;5052056;28;20543;-67
2022/07/27 06:56:08;;;;;;;27.02;13.48;;;;;;;32.55;36.73;98871.34;5072528;28;20451;-68
2022/07/27 06:58:39;;;;;;;24.50;12.83;;;;;;;32.32;36.64;98875.09;5060985;28;20048;-70
2022/07/27 07:01:06;;;;;;;15.95;12.52;;;;;;;32.29;37.19;98883.94;5053443;28;20048;-71
2022/07/27 07:03:33;;;;;;;27.35;12.75;;;;;;;34.10;34.29;98885.97;5054329;28;20079;-72
2022/07/27 07:06:00;;;;;;;20.80;11.95;;;;;;;38.52;27.52;98876.41;5018154;28;20079;-72
2022/07/27 07:08:27;;;;;;;21.10;12.50;;;;;;;40.69;24.41;98885.16;5053511;28;20530;-70
2022/07/27 07:10:55;;;;;;;70.47;16.63;;;;;;;41.23;23.88;98880.53;5054498;28;20067;-71
2022/07/27 07:13:22;;;;;;;19.98;12.40;;;;;;;41.74;23.29;98881.19;5062539;28;20098;-71
2022/07/27 07:15:50;;;;;;;19.25;12.65;;;;;;;44.04;21.36;98892.84;5056615;28;20083;-71
2022/07/27 07:18:17;;;;;;;15.98;11.73;;;;;;;46.40;18.84;98894.09;5060624;28;20481;-70
2022/07/27 07:20:46;;;;;;;19.33;11.73;;;;;;;47.77;17.15;98891.19;5060591;28;20056;-71
2022/07/27 07:23:13;;;;;;;19.80;11.60;;;;;;;49.12;16.07;98891.69;5064050;28;20041;-70
2022/07/27 07:25:40;;;;;;;19.88;11.80;;;;;;;50.17;14.45;98891.25;5050632;28;20059;-70
2022/07/27 07:28:08;;;;;;;17.30;10.90;;;;;;;50.72;14.01;98880.03;5068703;28;20040;-70
2022/07/27 07:30:37;;;;;;;12.45;10.50;;;;;;;51.41;13.38;98885.13;5062446;28;20129;-71
2022/07/27 07:33:05;;;;;;;16.52;10.68;;;;;;;51.82;13.23;98884.44;5062061;28;20063;-70
2022/07/27 07:35:32;;;;;;;;;;;;;;;51.56;13.36;98885.53;5068301;28;20139;-71
2022/07/27 07:37:59;;;;;;;13.48;9.90;;;;;;;52.59;12.49;98894.28;5068556;28;20389;-70
2022/07/27 07:40:26;;;;;;;13.05;9.35;;;;;;;53.50;11.68;98883.25;5064124;28;20076;-71
2022/07/27 07:43:12;;;;;;;14.07;9.85;;;;;;;54.44;10.66;98894.38;5059656;28;20130;-71
2022/07/27 07:45:41;;;;;;;13.75;9.57;;;;;;;54.65;10.19;98897.16;5059263;28;20093;-70
2022/07/27 07:48:21;;;;;;;19.27;9.68;;;;;;;54.75;9.70;98894.75;5058601;28;20407;-71
2022/07/27 07:50:52;;;;;;;18.15;9.82;;;;;;;55.21;9.81;98899.69;5071752;28;20067;-71
2022/07/27 07:53:23;;;;;;;16.20;9.88;;;;;;;55.64;9.39;98895.47;5061099;28;20389;-71
2022/07/27 07:55:55;;;;;;;18.40;9.10;;;;;;;56.24;8.47;98885.25;5055555;28;20447;-71
2022/07/27 07:58:22;;;;;;;131.38;12.05;;;;;;;56.33;8.50;98893.22;5068899;28;20106;-71
2022/07/27 08:00:49;;;;;;;13.43;8.95;;;;;;;56.26;8.21;98885.38;5022775;28;20045;-70
2022/07/27 08:03:17;;;;;;;10.43;7.75;;;;;;;56.03;8.23;98891.59;5062643;28;20091;-70
2022/07/27 08:05:45;;;;;;;10.45;9.43;;;;;;;55.80;8.54;98888.84;5057727;28;20135;-70
2022/07/27 08:08:16;;;;;;;11.27;9.43;;;;;;;56.14;8.52;98881.75;5059609;28;20044;-70
2022/07/27 08:10:43;;;;;;;9.90;8.88;;;;;;;56.24;8.08;98894.22;5072570;28;20415;-73
2022/07/27 08:13:10;;;;;;;64.05;36.45;;;;;;;56.51;7.97;98891.97;5060361;28;20531;-70
2022/07/27 08:15:39;;;;;;;10.85;9.23;;;;;;;56.37;8.04;98887.47;5050300;28;20080;-71
2022/07/27 08:18:06;;;;;;;15.82;9.93;;;;;;;56.25;8.04;98880.81;5042618;28;20129;-68
2022/07/27 08:20:34;;;;;;;17.05;9.98;;;;;;;53.81;9.27;98885.97;5066677;28;20054;-68
2022/07/27 08:23:01;;;;;;;14.13;10.05;;;;;;;53.27;10.14;98886.22;5055065;28;20515;-68
2022/07/27 08:25:28;;;;;;;25.33;10.80;;;;;;;53.33;9.85;98877.69;5075204;28;20056;-68
2022/07/27 08:27:55;;;;;;;14.10;9.90;;;;;;;54.05;9.46;98878.56;5063512;28;20055;-68
2022/07/27 08:30:23;;;;;;;16.88;11.20;;;;;;;54.66;9.39;98877.81;5075156;28;20135;-68
2022/07/27 08:32:54;;;;;;;23.63;15.18;;;;;;;55.08;8.79;98870.59;5057178;28;20051;-68
2022/07/27 08:35:21;;;;;;;13.25;9.82;;;;;;;55.69;8.57;98871.81;5073037;28;20530;-68
2022/07/27 08:37:48;;;;;;;14.07;10.18;;;;;;;56.42;8.25;98872.06;5060934;28;20474;-68
2022/07/27 08:40:16;;;;;;;18.27;10.27;;;;;;;57.05;7.90;98867.03;5064687;28;20052;-68
2022/07/27 08:43:04;;;;;;;16.63;10.10;;;;;;;57.64;7.04;98868.41;5066588;28;20496;-68
2022/07/27 08:45:32;;;;;;;10.07;9.07;;;;;;;57.20;6.88;98872.25;5069926;28;20051;-68
2022/07/27 08:48:01;;;;;;;11.32;9.00;;;;;;;57.67;6.98;98869.28;5054939;28;20053;-68
2022/07/27 08:50:29;;;;;;;14.20;10.27;;;;;;;57.11;7.33;98876.31;5060804;28;20136;-68
2022/07/27 08:52:59;;;;;;;15.25;9.65;;;;;;;53.67;9.53;98873.97;5056277;28;20053;-67
2022/07/27 08:55:28;;;;;;;18.30;9.48;;;;;;;52.84;9.61;98855.13;5071490;28;20040;-68
2022/07/27 08:57:55;;;;;;;14.80;10.18;;;;;;;54.84;8.58;98861.03;5065588;28;20048;-68
2022/07/27 09:00:29;;;;;;;14.88;9.57;;;;;;;54.13;8.88;98864.19;5055735;28;20098;-68
2022/07/27 09:02:57;;;;;;;16.80;10.77;;;;;;;49.06;12.67;98866.78;5058788;28;20084;-68
2022/07/27 09:05:24;;;;;;;21.70;10.95;;;;;;;45.20;15.82;98856.84;5062797;28;20050;-67
2022/07/27 09:08:28;;;;;;;18.80;12.05;;;;;;;41.86;18.81;98855.44;5058023;28;20131;-67
2022/07/27 09:10:58;;;;;;;16.10;11.90;;;;;;;40.67;19.89;98864.53;5054829;28;20467;-67
2022/07/27 09:13:29;;;;;;;16.10;12.40;;;;;;;39.39;21.67;98855.81;5056480;28;20254;-67
2022/07/27 09:16:03;;;;;;;21.20;12.52;;;;;;;38.37;22.61;98853.47;5060132;28;20178;-68
2022/07/27 09:18:56;;;;;;;26.00;12.52;;;;;;;37.54;24.22;98855.19;5061359;28;20450;-66
2022/07/27 09:21:23;;;;;;;17.90;12.95;;;;;;;36.57;25.74;98859.22;5057440;28;20044;-66
2022/07/27 09:23:54;;;;;;;19.60;12.43;;;;;;;36.49;26.73;98858.94;5057236;28;20049;-67
2022/07/27 09:26:27;;;;;;;25.58;13.00;;;;;;;39.50;23.13;98864.47;5073995;28;20131;-68
2022/07/27 09:29:14;;;;;;;19.88;11.77;;;;;;;45.23;17.01;98862.34;5074888;28;20056;-67
2022/07/27 09:31:51;;;;;;;16.95;11.52;;;;;;;46.73;15.66;98869.22;5060928;28;20068;-67
2022/07/27 09:34:32;;;;;;;30.47;12.77;;;;;;;43.13;18.64;98865.75;5053798;28;20084;-68
2022/07/27 09:37:02;;;;;;;22.45;12.52;;;;;;;46.67;15.20;98871.63;5059457;28;20072;-67
2022/07/27 09:39:31;;;;;;;16.83;12.05;;;;;;;46.80;15.05;98865.44;5055913;28;20067;-68
2022/07/27 09:42:01;;;;;;;22.02;12.25;;;;;;;48.68;13.61;98872.44;5071959;28;20127;-68
2022/07/27 09:44:31;;;;;;;21.05;11.50;;;;;;;45.18;16.23;98868.38;5071874;28;20507;-68
2022/07/27 09:47:28;;;;;;;19.58;15.88;;;;;;;41.35;19.92;98860.69;5062475;28;20072;-68
2022/07/27 09:50:18;;;;;;;19.48;11.57;;;;;;;38.92;22.37;98852.28;5035844;28;20048;-69
2022/07/27 09:52:46;;;;;;;16.17;11.07;;;;;;;37.36;23.81;98847.06;5057562;28;20051;-68
2022/07/27 09:55:13;;;;;;;14.17;11.63;;;;;;;36.79;25.18;98847.66;5043812;28;20049;-67
2022/07/27 09:57:56;;;;;;;15.15;11.73;;;;;;;36.42;25.84;98842.09;5062333;28;20098;-66
2022/07/27 10:00:25;;;;;;;10.52;9.32;;;;;;;35.66;25.49;98860.75;5058890;28;20045;-69
2022/07/27 10:02:53;;;;;;;13.98;11.43;;;;;;;35.01;26.08;98861.94;5055791;28;20056;-67
2022/07/27 10:05:21;;;;;;;42.63;26.95;;;;;;;34.76;26.08;98857.78;5053284;28;20049;-64
2022/07/27 10:07:52;;;;;;;15.38;11.35;;;;;;;34.71;26.26;98861.41;5053174;28;20049;-65
2022/07/27 10:10:21;;;;;;;16.00;11.52;;;;;;;34.58;27.41;98860.25;5053135;28;20053;-65
2022/07/27 10:12:48;;;;;;;20.27;11.93;;;;;;;34.60;27.79;98851.84;5035989;28;20049;-67
2022/07/27 10:15:21;;;;;;;18.30;12.35;;;;;;;34.79;27.73;98841.50;5053162;28;20057;-65
2022/07/27 10:17:55;;;;;;;17.65;12.02;;;;;;;34.83;27.79;98842.06;5053341;28;20049;-65
2022/07/27 10:20:22;;;;;;;15.98;11.05;;;;;;;34.95;27.96;98846.63;5053265;28;20053;-65
2022/07/27 10:22:59;;;;;;;17.75;12.32;;;;;;;35.06;28.24;98844.63;5052773;28;20415;-66
2022/07/27 10:25:29;;;;;;;19.73;11.70;;;;;;;34.89;27.46;98848.69;5052804;28;20603;-66
2022/07/27 10:28:16;;;;;;;18.10;11.68;;;;;;;34.89;26.80;98860.25;5053029;28;20077;-66
2022/07/27 10:30:43;;;;;;;17.80;11.48;;;;;;;34.69;27.28;98857.47;5052845;28;20516;-66
2022/07/27 10:33:41;;;;;;;13.88;11.73;;;;;;;34.39;28.29;98842.47;5059669;28;20459;-66
2022/07/27 10:36:45;;;;;;;16.98;12.82;;;;;;;34.10;28.67;98850.56;5054138;28;20080;-64
2022/07/27 10:39:29;;;;;;;15.80;12.00;;;;;;;34.01;29.37;98847.84;5067760;28;20044;-64
2022/07/27 10:42:19;;;;;;;19.70;11.65;;;;;;;33.94;29.59;98854.03;5070938;28;20513;-64
2022/07/27 10:45:20;;;;;;;70.40;36.17;;;;;;;33.88;29.84;98844.53;5062809;28;20393;-66
2022/07/27 10:47:49;;;;;;;16.52;12.80;;;;;;;33.84;30.04;98838.97;5058539;28;20048;-65
2022/07/27 10:50:16;;;;;;;17.17;11.70;;;;;;;33.64;30.08;98841.06;5057315;28;20041;-65
2022/07/27 10:52:47;;;;;;;20.27;12.98;;;;;;;33.56;29.94;98845.69;5052171;28;20071;-65
2022/07/27 10:55:30;;;;;;;16.88;12.43;;;;;;;33.57;29.74;98833.66;5052071;28;20055;-65
2022/07/27 10:58:01;;;;;;;16.08;11.65;;;;;;;33.56;30.18;98837.03;5052580;28;20052;-64
2022/07/27 11:00:54;;;;;;;17.02;11.10;;;;;;;33.59;30.55;98844.69;5071044;28;20068;-64
2022/07/27 11:03:24;;;;;;;15.30;12.07;;;;;;;33.52;30.44;98845.91;5085670;28;20145;-64
2022/07/27 11:06:02;;;;;;;18.42;12.00;;;;;;;33.69;30.18;98838.25;5062538;28;20044;-64
2022/07/27 11:08:50;;;;;;;16.17;12.00;;;;;;;33.93;29.91;98835.13;5062107;28;20060;-65
2022/07/27 11:11:37;;;;;;;22.15;12.48;;;;;;;34.13;29.68;98840.88;5064145;28;20053;-64
2022/07/27 11:14:04;;;;;;;16.42;11.82;;;;;;;34.12;29.95;98837.19;5052159;28;20045;-64
2022/07/27 11:16:32;;;;;;;19.23;11.60;;;;;;;34.08;29.95;98833.75;5019976;28;20055;-64
2022/07/27 11:19:16;;;;;;;19.25;13.18;;;;;;;33.62;30.36;98832.13;5060622;28;20503;-64
2022/07/27 11:21:45;;;;;;;21.55;13.65;;;;;;;33.11;31.24;98830.63;5057816;28;20082;-64
2022/07/27 11:24:16;;;;;;;22.95;14.30;;;;;;;32.74;31.90;98826.63;5051877;28;20133;-65
2022/07/27 11:26:51;;;;;;;18.88;14.10;;;;;;;32.54;32.63;98831.53;5051904;28;20053;-65
2022/07/27 11:29:20;;;;;;;23.77;14.23;;;;;;;32.41;32.39;98831.06;5052221;28;20507;-64
2022/07/27 11:31:50;;;;;;;22.77;12.80;;;;;;;32.32;32.64;98826.13;5051828;28;20083;-64
2022/07/27 11:34:35;;;;;;;21.17;13.57;;;;;;;32.37;32.85;98827.56;5053142;28;20356;-64
2022/07/27 11:37:11;;;;;;;16.63;12.77;;;;;;;32.40;32.88;98830.25;5059408;28;20522;-66